createdAt,value
2018-12-15T05:57:34.332Z,1033.75
2018-12-15T05:59:10.505Z,1033.76
2018-12-15T06:09:40.366Z,1033.77
2018-12-15T06:11:06.716Z,1033.77
2018-12-15T06:12:33.684Z,1033.81
2018-12-15T06:14:00.977Z,1033.81
2018-12-15T06:15:28.009Z,1033.80
2018-12-15T06:16:54.983Z,1033.81
2018-12-15T06:18:21.918Z,1033.81
2018-12-15T06:19:49.150Z,1033.81
2018-12-15T06:21:16.297Z,1033.81
2018-12-15T06:47:07.249Z,1033.81
2018-12-15T06:48:53.134Z,1033.79
2018-12-15T06:50:19.913Z,1033.82
2018-12-15T06:51:47.046Z,1033.85
2018-12-15T06:53:14.060Z,1033.87
2018-12-15T06:54:41.115Z,1033.85
2018-12-15T06:56:08.170Z,1033.85
2018-12-15T06:57:35.254Z,1033.88
2018-12-15T06:59:02.276Z,1033.88
2018-12-15T07:00:29.522Z,1033.91
2018-12-15T07:01:56.617Z,1033.92
2018-12-15T07:03:23.846Z,1033.91
2018-12-15T07:04:51.070Z,1033.93
2018-12-15T07:06:18.287Z,1033.96
2018-12-15T07:07:45.569Z,1033.97
2018-12-15T07:09:12.752Z,1033.99
2018-12-15T07:10:40.033Z,1034.04
2018-12-15T07:12:07.106Z,1034.06
2018-12-15T07:13:34.351Z,1034.06
2018-12-15T07:15:01.423Z,1034.06
2018-12-15T07:16:28.549Z,1034.09
2018-12-15T07:17:55.616Z,1034.10
2018-12-15T07:19:22.658Z,1034.12
2018-12-15T07:20:49.666Z,1034.12
2018-12-15T07:22:16.710Z,1034.11
2018-12-15T07:23:43.944Z,1034.09
2018-12-15T07:25:10.983Z,1034.09
2018-12-15T07:26:38.125Z,1034.11
2018-12-15T07:28:05.127Z,1034.10
2018-12-15T07:29:32.084Z,1034.11
2018-12-15T07:31:08.858Z,1034.10
2018-12-15T07:32:35.905Z,1034.07
2018-12-15T07:39:52.084Z,1034.13
2018-12-15T07:41:18.363Z,1034.10
2018-12-15T07:42:45.408Z,1034.12
2018-12-15T07:44:12.618Z,1034.10
2018-12-15T07:45:39.808Z,1034.08
2018-12-15T07:47:06.887Z,1034.06
2018-12-15T07:48:33.759Z,1034.03
2018-12-15T07:50:00.976Z,1034.04
2018-12-15T07:51:28.087Z,1034.01
2018-12-15T07:52:54.891Z,1034.02
2018-12-15T07:54:22.001Z,1034.01
2018-12-15T07:55:49.221Z,1034.03
2018-12-15T07:57:16.341Z,1034.06
2018-12-15T07:58:43.310Z,1034.08
2018-12-15T08:01:37.310Z,1034.08
2018-12-15T08:03:04.256Z,1034.09
2018-12-15T08:04:31.340Z,1034.10
2018-12-15T08:05:58.446Z,1034.08
2018-12-15T08:07:25.649Z,1034.06
2018-12-15T08:08:52.586Z,1034.06
2018-12-15T08:10:19.755Z,1034.04
2018-12-15T08:11:46.761Z,1034.08
2018-12-15T08:29:03.853Z,1034.11
2018-12-15T08:30:30.403Z,1034.13
2018-12-15T08:31:57.381Z,1034.16
2018-12-15T08:33:24.435Z,1034.17
2018-12-15T08:34:51.689Z,1034.20
2018-12-15T08:36:18.932Z,1034.21
2018-12-15T08:37:46.133Z,1034.23
2018-12-15T08:39:13.328Z,1034.22
2018-12-15T08:40:40.397Z,1034.25
2018-12-15T08:42:07.541Z,1034.25
2018-12-15T08:43:34.589Z,1034.27
2018-12-15T08:45:01.664Z,1034.26
2018-12-15T08:46:28.363Z,1034.28
2018-12-15T08:47:55.430Z,1034.25
2018-12-15T08:49:22.377Z,1034.20
2018-12-15T08:55:40.144Z,1034.17
2018-12-15T08:57:06.622Z,1034.16
2018-12-15T08:59:05.869Z,1034.19
2018-12-15T09:00:29.516Z,1034.19
2018-12-15T09:01:56.507Z,1034.20
2018-12-15T09:03:23.763Z,1034.23
2018-12-15T09:04:50.711Z,1034.25
2018-12-15T09:06:17.779Z,1034.25
2018-12-15T09:07:44.948Z,1034.26
2018-12-15T09:09:11.770Z,1034.27
2018-12-15T09:10:38.507Z,1034.27
2018-12-15T09:12:05.599Z,1034.25
2018-12-15T09:13:32.443Z,1034.26
2018-12-15T09:14:59.459Z,1034.27
2018-12-15T09:16:26.819Z,1034.28
2018-12-15T09:17:53.607Z,1034.30
2018-12-15T09:19:20.624Z,1034.28
2018-12-15T09:20:47.772Z,1034.28
2018-12-15T09:22:14.890Z,1034.29
2018-12-15T09:23:41.811Z,1034.30
2018-12-15T09:25:08.919Z,1034.28
2018-12-15T09:26:36.119Z,1034.26
2018-12-15T09:28:03.181Z,1034.26
2018-12-15T09:29:30.222Z,1034.22
2018-12-15T09:30:57.273Z,1034.20
2018-12-15T09:32:24.262Z,1034.20
2018-12-15T09:33:51.310Z,1034.17
2018-12-15T09:35:18.484Z,1034.16
2018-12-15T09:36:45.419Z,1034.14
2018-12-15T09:38:12.655Z,1034.16
2018-12-15T09:39:39.713Z,1034.19
2018-12-15T09:41:06.782Z,1034.19
2018-12-15T09:42:33.958Z,1034.18
2018-12-15T09:44:01.025Z,1034.18
2018-12-15T09:45:28.053Z,1034.16
2018-12-15T09:46:55.096Z,1034.16
2018-12-15T09:48:21.990Z,1034.17
2018-12-15T09:49:48.954Z,1034.19
2018-12-15T09:51:15.955Z,1034.18
2018-12-15T09:52:42.972Z,1034.19
2018-12-15T09:54:10.128Z,1034.17
2018-12-15T09:55:37.383Z,1034.16
2018-12-15T09:57:04.363Z,1034.18
2018-12-15T09:58:31.466Z,1034.16
2018-12-15T09:59:58.458Z,1034.17
2018-12-15T10:01:25.662Z,1034.15
2018-12-15T10:02:52.926Z,1034.12
2018-12-15T10:04:20.054Z,1034.08
2018-12-15T10:05:47.177Z,1034.08
2018-12-15T10:07:14.363Z,1034.04
2018-12-15T10:08:41.103Z,1034.02
2018-12-15T10:10:08.272Z,1034.01
2018-12-15T10:11:35.286Z,1033.97
2018-12-15T10:13:02.456Z,1033.98
2018-12-15T10:14:29.655Z,1033.99
2018-12-15T10:15:56.717Z,1033.95
2018-12-15T10:17:23.504Z,1033.97
2018-12-15T10:18:50.162Z,1033.95
2018-12-15T10:20:16.829Z,1033.94
2018-12-15T10:21:43.792Z,1033.92
2018-12-15T10:23:10.823Z,1033.91
2018-12-15T10:24:37.700Z,1033.90
2018-12-15T10:26:04.243Z,1033.92
2018-12-15T10:27:31.149Z,1033.91
2018-12-15T10:28:58.169Z,1033.91
2018-12-15T10:30:25.103Z,1033.90
2018-12-15T10:31:52.355Z,1033.87
2018-12-15T10:33:18.747Z,1033.86
2018-12-15T10:34:45.854Z,1033.84
2018-12-15T10:36:12.565Z,1033.85
2018-12-15T10:37:39.673Z,1033.80
2018-12-15T10:39:06.768Z,1033.78
2018-12-15T10:40:33.696Z,1033.75
2018-12-15T10:42:00.987Z,1033.74
2018-12-15T10:43:27.986Z,1033.70
2018-12-15T10:44:55.040Z,1033.69
2018-12-15T10:46:22.236Z,1033.68
2018-12-15T10:47:49.081Z,1033.67
2018-12-15T10:49:16.310Z,1033.62
2018-12-15T10:50:43.408Z,1033.62
2018-12-15T10:52:10.616Z,1033.59
2018-12-15T10:53:37.878Z,1033.58
2018-12-15T10:55:04.876Z,1033.53
2018-12-15T10:56:32.067Z,1033.49
2018-12-15T10:57:59.206Z,1033.46
2018-12-15T10:59:26.271Z,1033.46
2018-12-15T11:00:53.355Z,1033.47
2018-12-15T11:02:20.222Z,1033.47
2018-12-15T11:03:47.458Z,1033.49
2018-12-15T11:05:14.478Z,1033.48
2018-12-15T11:06:41.156Z,1033.48
2018-12-15T11:08:08.197Z,1033.47
2018-12-15T11:09:35.115Z,1033.47
2018-12-15T11:11:02.245Z,1033.49
2018-12-15T11:12:29.329Z,1033.48
2018-12-15T11:13:56.831Z,1033.49
2018-12-15T11:15:23.382Z,1033.49
2018-12-15T11:16:50.194Z,1033.46
2018-12-15T11:18:17.370Z,1033.45
2018-12-15T11:19:44.401Z,1033.41
2018-12-15T11:21:11.370Z,1033.39
2018-12-15T11:22:38.369Z,1033.38
2018-12-15T11:24:05.418Z,1033.36
2018-12-15T11:25:32.422Z,1033.36
2018-12-15T11:26:59.336Z,1033.37
2018-12-15T11:28:26.078Z,1033.37
2018-12-15T11:29:53.009Z,1033.37
2018-12-15T11:31:19.692Z,1033.37
2018-12-15T11:32:46.786Z,1033.33
2018-12-15T11:34:13.481Z,1033.34
2018-12-15T11:35:40.269Z,1033.31
2018-12-15T11:37:07.472Z,1033.30
2018-12-15T11:38:34.265Z,1033.31
2018-12-15T11:40:01.388Z,1033.26
2018-12-15T11:41:28.295Z,1033.24
2018-12-15T11:42:55.047Z,1033.21
2018-12-15T11:44:24.973Z,1033.22
2018-12-15T11:45:49.000Z,1033.21
2018-12-15T11:47:16.053Z,1033.21
2018-12-15T11:48:42.895Z,1033.20
2018-12-15T11:50:10.019Z,1033.18
2018-12-15T11:51:36.836Z,1033.16
2018-12-15T11:53:03.902Z,1033.14
2018-12-15T11:54:31.055Z,1033.15
2018-12-15T11:55:58.104Z,1033.11
2018-12-15T11:57:25.181Z,1033.09
2018-12-15T11:58:52.092Z,1033.07
2018-12-15T12:00:18.608Z,1033.05
2018-12-15T12:01:45.599Z,1033.04
2018-12-15T12:03:12.434Z,1033.03
2018-12-15T12:04:39.370Z,1033.02
2018-12-15T12:06:06.339Z,1033.00
2018-12-15T12:07:33.067Z,1033.00
2018-12-15T12:09:00.171Z,1032.97
2018-12-15T12:10:27.142Z,1032.97
2018-12-15T12:11:53.888Z,1032.93
2018-12-15T12:13:20.769Z,1032.91
2018-12-15T12:14:47.463Z,1032.93
2018-12-15T12:16:14.117Z,1032.91
2018-12-15T12:17:41.100Z,1032.89
2018-12-15T12:19:07.939Z,1032.89
2018-12-15T12:20:34.578Z,1032.89
2018-12-15T12:22:01.243Z,1032.88
2018-12-15T12:23:28.255Z,1032.87
2018-12-15T12:24:55.046Z,1032.90
2018-12-15T12:26:22.120Z,1032.89
2018-12-15T12:27:48.960Z,1032.88
2018-12-15T12:29:15.777Z,1032.87
2018-12-15T12:30:42.613Z,1032.82
2018-12-15T12:32:09.611Z,1032.83
2018-12-15T12:33:36.530Z,1032.82
2018-12-15T12:35:03.619Z,1032.80
2018-12-15T12:36:29.986Z,1032.78
2018-12-15T12:39:23.391Z,1032.76
2018-12-15T12:40:50.096Z,1032.75
2018-12-15T12:42:17.023Z,1032.75
2018-12-15T12:43:43.468Z,1032.75
2018-12-15T12:45:10.313Z,1032.76
2018-12-15T12:46:37.363Z,1032.77
2018-12-15T12:48:04.108Z,1032.76
2018-12-15T12:49:30.840Z,1032.76
2018-12-15T12:50:57.589Z,1032.75
2018-12-15T12:52:24.669Z,1032.77
2018-12-15T12:53:51.431Z,1032.78
2018-12-15T12:55:18.499Z,1032.77
2018-12-15T12:56:45.507Z,1032.77
2018-12-15T12:58:12.570Z,1032.78
2018-12-15T12:59:39.500Z,1032.76
2018-12-15T13:01:06.573Z,1032.79
2018-12-15T13:02:33.684Z,1032.77
2018-12-15T13:04:00.781Z,1032.77
2018-12-15T13:05:27.613Z,1032.81
2018-12-15T13:06:54.687Z,1032.77
2018-12-15T13:08:21.762Z,1032.75
2018-12-15T13:09:48.907Z,1032.78
2018-12-15T13:11:15.909Z,1032.76
2018-12-15T13:12:42.945Z,1032.73
2018-12-15T13:14:10.025Z,1032.76
2018-12-15T13:15:36.930Z,1032.78
2018-12-15T13:17:04.079Z,1032.78
2018-12-15T13:18:31.193Z,1032.77
2018-12-15T13:20:03.559Z,1032.80
2018-12-15T13:21:25.432Z,1032.78
2018-12-15T13:22:52.430Z,1032.77
2018-12-15T13:24:19.324Z,1032.72
2018-12-15T13:25:46.240Z,1032.71
2018-12-15T13:27:13.374Z,1032.70
2018-12-15T13:28:40.728Z,1032.70
2018-12-15T13:30:07.812Z,1032.70
2018-12-15T13:31:34.958Z,1032.68
2018-12-15T13:33:02.087Z,1032.66
2018-12-15T13:34:32.065Z,1032.64
2018-12-15T13:35:55.950Z,1032.64
2018-12-15T13:37:25.934Z,1032.60
2018-12-15T13:38:49.907Z,1032.59
2018-12-15T13:40:16.974Z,1032.61
2018-12-15T13:41:44.094Z,1032.61
2018-12-15T13:43:11.090Z,1032.58
2018-12-15T13:44:38.208Z,1032.59
2018-12-15T13:46:05.368Z,1032.57
2018-12-15T13:47:32.528Z,1032.54
2018-12-15T13:48:59.790Z,1032.55
2018-12-15T13:50:26.828Z,1032.53
2018-12-15T13:51:53.917Z,1032.52
2018-12-15T13:53:21.086Z,1032.51
2018-12-15T13:54:48.166Z,1032.51
2018-12-15T13:56:15.256Z,1032.52
2018-12-15T13:57:42.377Z,1032.49
2018-12-15T13:59:09.516Z,1032.49
2018-12-15T14:00:36.709Z,1032.47
2018-12-15T14:02:03.730Z,1032.47
2018-12-15T14:03:30.906Z,1032.48
2018-12-15T14:04:57.819Z,1032.49
2018-12-15T14:06:24.785Z,1032.49
2018-12-15T14:07:51.868Z,1032.48
2018-12-15T14:09:19.103Z,1032.51
2018-12-15T14:10:46.239Z,1032.51
2018-12-15T14:12:13.296Z,1032.51
2018-12-15T14:13:40.419Z,1032.52
2018-12-15T14:16:34.595Z,1032.52
2018-12-15T14:18:01.849Z,1032.51
2018-12-15T14:19:28.845Z,1032.53
2018-12-15T14:20:56.071Z,1032.52
2018-12-15T14:34:59.448Z,1032.38
2018-12-15T14:36:25.935Z,1032.37
2018-12-15T14:37:52.863Z,1032.36
2018-12-15T14:39:20.068Z,1032.38
2018-12-15T14:40:47.165Z,1032.39
2018-12-15T14:42:14.312Z,1032.34
2018-12-15T14:43:44.411Z,1032.35
2018-12-15T14:45:08.633Z,1032.34
2018-12-15T14:46:35.839Z,1032.32
2018-12-15T14:48:02.999Z,1032.33
2018-12-15T14:49:30.190Z,1032.31
2018-12-15T14:50:57.321Z,1032.28
2018-12-15T14:52:24.374Z,1032.27
2018-12-15T14:53:51.613Z,1032.23
2018-12-15T14:55:18.738Z,1032.23
2018-12-15T14:56:45.844Z,1032.23
2018-12-15T14:58:12.953Z,1032.20
2018-12-15T15:04:01.947Z,1032.16
2018-12-15T15:05:28.676Z,1032.17
2018-12-15T15:06:55.868Z,1032.18
2018-12-15T15:08:22.741Z,1032.18
2018-12-15T15:09:49.929Z,1032.17
2018-12-15T15:11:17.235Z,1032.18
2018-12-15T15:12:44.365Z,1032.16
2018-12-15T15:14:11.697Z,1032.13
2018-12-15T15:15:38.728Z,1032.10
2018-12-15T15:17:05.824Z,1032.09
2018-12-15T15:18:32.904Z,1032.11
2018-12-15T15:20:00.114Z,1032.10
2018-12-15T15:21:27.249Z,1032.07
2018-12-15T15:22:54.602Z,1032.05
2018-12-15T15:24:21.847Z,1032.04
2018-12-15T15:25:48.852Z,1032.02
2018-12-15T15:27:15.925Z,1032.05
2018-12-15T15:28:42.940Z,1032.01
2018-12-15T15:30:09.967Z,1031.99
2018-12-15T15:31:37.081Z,1031.98
2018-12-15T15:33:04.170Z,1031.94
2018-12-15T15:34:31.497Z,1031.93
2018-12-15T15:35:58.418Z,1031.92
2018-12-15T15:37:25.668Z,1031.90
2018-12-15T15:38:52.311Z,1031.90
2018-12-15T15:40:19.360Z,1031.90
2018-12-15T15:41:46.544Z,1031.89
2018-12-15T15:55:40.101Z,1031.69
2018-12-15T15:57:06.180Z,1031.68
2018-12-15T15:58:32.788Z,1031.66
2018-12-15T15:59:59.755Z,1031.61
2018-12-15T16:01:26.986Z,1031.60
2018-12-15T16:02:53.742Z,1031.57
2018-12-15T16:04:20.580Z,1031.58
2018-12-15T16:05:47.782Z,1031.54
2018-12-15T16:07:14.927Z,1031.52
2018-12-15T16:19:11.922Z,1031.35
2018-12-15T16:20:43.118Z,1031.32
2018-12-15T16:22:05.499Z,1031.31
2018-12-15T16:23:32.634Z,1031.30
2018-12-15T16:24:59.761Z,1031.27
2018-12-15T16:26:26.774Z,1031.27
2018-12-15T16:27:53.868Z,1031.27
2018-12-15T16:29:49.873Z,1031.24
2018-12-15T16:31:16.759Z,1031.24
2018-12-15T16:32:43.972Z,1031.23
2018-12-15T16:34:11.080Z,1031.22
2018-12-15T16:35:38.280Z,1031.21
2018-12-15T16:37:05.488Z,1031.20
2018-12-15T16:38:32.696Z,1031.20
2018-12-15T16:39:59.548Z,1031.21
2018-12-15T16:41:26.624Z,1031.20
2018-12-15T16:42:53.631Z,1031.20
2018-12-15T16:44:24.052Z,1031.18
2018-12-15T17:36:02.733Z,1030.67
2018-12-15T17:38:56.225Z,1030.64
2018-12-15T17:40:23.285Z,1030.61
2018-12-15T17:41:50.398Z,1030.63
2018-12-15T17:43:17.455Z,1030.63
2018-12-15T17:44:44.457Z,1030.59
2018-12-15T17:46:11.722Z,1030.58
2018-12-15T17:47:38.910Z,1030.57
2018-12-15T17:49:06.114Z,1030.56
2018-12-15T17:50:33.189Z,1030.57
2018-12-15T17:52:00.375Z,1030.57
2018-12-15T18:33:41.266Z,1030.16
